Dades meteomassalio
Diari Summary for Setembre 9, 2017 Units:  Metric    English   Both
« Previous Day
Next Day »
Diari Semanal Mensual Anual Personalitzat
  Maxima: Minima: Mijana:
Temperatura: 21.7 °C 11.7 °C 16.4 °C
Rosada: 13.7 °C 7.8 °C 11 °C
Humitat: 92 % 53 % 71 %
Velocitat del vent: 44.4 km/h 0.0 km/h 17.7 km/h
Racha vent: 44.4 km/h - -
Vent:- - SW
Pressio: 1011.7 hPa 1007.3 hPa -
Pluja: 0.3 mm    
Historical Graphs
 
 
Tabular Data for Setembre 9, 2017
Time Temperature Dew Point Pressure Wind Wind Speed Wind Gust Humidity Rainfall Rate (Hourly) solar Conditions
00:00 15.0 °C 10.4 °C 1010.7 hPa Calm     74 % 0.0 mm 0.0 W/m2 CLR
00:05 15.0 °C 10.2 °C 1010.7 hPa Calm     73 % 0.0 mm 0.0 W/m2 CLR
00:10 15.0 °C 10.6 °C 1010.7 hPa Calm     75 % 0.0 mm 0.0 W/m2 CLR
00:15 15.0 °C 11.0 °C 1010.7 hPa Calm     77 % 0.0 mm 0.0 W/m2 CLR
00:20 14.4 °C 10.4 °C 1010.7 hPa Calm     77 % 0.0 mm 0.0 W/m2 CLR
00:25 14.4 °C 10.3 °C 1010.7 hPa Calm     76 % 0.0 mm 0.0 W/m2 CLR
00:30 14.4 °C 10.1 °C 1010.7 hPa Calm     75 % 0.0 mm 0.0 W/m2 CLR
00:35 15.0 °C 11.4 °C 1010.7 hPa Calm     79 % 0.0 mm 0.0 W/m2 CLR
00:40 15.0 °C 11.2 °C 1010.7 hPa Calm     78 % 0.0 mm 0.0 W/m2 CLR
00:45 15.0 °C 11.0 °C 1010.7 hPa Calm     77 % 0.0 mm 0.0 W/m2 CLR
00:50 15.6 °C 11.6 °C 1010.4 hPa Calm     77 % 0.0 mm 0.0 W/m2 CLR
00:55 15.6 °C 11.6 °C 1010.7 hPa Calm     77 % 0.0 mm 0.0 W/m2 CLR
01:00 15.6 °C 11.6 °C 1010.4 hPa Calm     77 % 0.0 mm 0.0 W/m2 CLR
01:05 15.6 °C 11.9 °C 1010.4 hPa Calm     79 % 0.0 mm 0.0 W/m2 CLR
01:10 15.6 °C 11.9 °C 1010.4 hPa Calm     79 % 0.0 mm 0.0 W/m2 CLR
01:15 15.6 °C 11.9 °C 1010.4 hPa South 1.9 km/h   79 % 0.0 mm 0.0 W/m2 CLR
01:20 15.0 °C 11.6 °C 1010.4 hPa Calm     80 % 0.0 mm 0.0 W/m2 CLR
01:25 15.0 °C 11.4 °C 1010.4 hPa Calm     79 % 0.0 mm 0.0 W/m2 CLR
01:30 15.0 °C 11.4 °C 1010.0 hPa Calm     79 % 0.0 mm 0.0 W/m2 CLR
01:35 14.4 °C 11.2 °C 1010.0 hPa Calm     81 % 0.0 mm 0.0 W/m2 CLR
01:40 14.4 °C 11.1 °C 1010.0 hPa Calm     80 % 0.0 mm 0.0 W/m2 CLR
01:45 13.9 °C 10.7 °C 1010.0 hPa Calm     81 % 0.0 mm 0.0 W/m2 CLR
01:50 13.9 °C 10.7 °C 1010.0 hPa Calm     81 % 0.0 mm 0.0 W/m2 CLR
01:55 13.9 °C 10.7 °C 1010.0 hPa Calm     81 % 0.0 mm 0.0 W/m2 CLR
02:00 13.9 °C 10.9 °C 1010.0 hPa Calm     82 % 0.0 mm 0.0 W/m2 CLR
02:05 13.9 °C 10.9 °C 1010.0 hPa Calm     82 % 0.0 mm 0.0 W/m2 CLR
02:10 13.3 °C 10.5 °C 1010.0 hPa Calm     83 % 0.0 mm 0.0 W/m2 CLR
02:15 13.3 °C 10.5 °C 1009.7 hPa Calm     83 % 0.0 mm 0.0 W/m2 CLR
02:20 13.3 °C 10.7 °C 1009.7 hPa SE 1.9 km/h 1.9 km/h 84 % 0.0 mm 0.0 W/m2 CLR
02:25 13.3 °C 10.7 °C 1009.4 hPa Calm     84 % 0.0 mm 0.0 W/m2 CLR
02:30 13.3 °C 10.7 °C 1009.4 hPa Calm     84 % 0.0 mm 0.0 W/m2 CLR
02:35 13.9 °C 11.4 °C 1009.0 hPa Calm     85 % 0.0 mm 0.0 W/m2 CLR
02:40 13.3 °C 10.9 °C 1009.0 hPa Calm     85 % 0.0 mm 0.0 W/m2 CLR
02:45 13.3 °C 10.9 °C 1009.0 hPa Calm     85 % 0.0 mm 0.0 W/m2 CLR
02:50 13.3 °C 10.9 °C 1009.0 hPa Calm     85 % 0.0 mm 0.0 W/m2 CLR
02:55 13.3 °C 10.9 °C 1009.0 hPa Calm     85 % 0.0 mm 0.0 W/m2 CLR
03:00 13.3 °C 10.9 °C 1009.0 hPa Calm     85 % 0.0 mm 0.0 W/m2 CLR
03:05 13.3 °C 10.9 °C 1009.0 hPa Calm     85 % 0.0 mm 0.0 W/m2 CLR
03:10 13.3 °C 10.9 °C 1008.7 hPa Calm     85 % 0.0 mm 0.0 W/m2 CLR
03:15 13.3 °C 10.9 °C 1008.7 hPa Calm     85 % 0.0 mm 0.0 W/m2 CLR
03:20 12.8 °C 10.3 °C 1008.7 hPa Calm     85 % 0.0 mm 0.0 W/m2 CLR
03:25 12.8 °C 10.5 °C 1008.7 hPa Calm     86 % 0.0 mm 0.0 W/m2 CLR
03:30 12.8 °C 10.5 °C 1008.7 hPa Calm     86 % 0.0 mm 0.0 W/m2 CLR
03:31 12.8 °C 10.5 °C 1008.4 hPa Calm     86 % 0.0 mm 0.0 W/m2 CLR
03:36 12.8 °C 10.5 °C 1008.4 hPa Calm     86 % 0.0 mm 0.0 W/m2 CLR
03:41 12.8 °C 10.5 °C 1008.4 hPa Calm     86 % 0.0 mm 0.0 W/m2 CLR
03:46 12.8 °C 10.5 °C 1008.4 hPa Calm     86 % 0.0 mm 0.0 W/m2 CLR
03:51 12.8 °C 10.7 °C 1008.0 hPa Calm     87 % 0.0 mm 0.0 W/m2 CLR
03:56 12.8 °C 10.7 °C 1008.0 hPa Calm     87 % 0.0 mm 0.0 W/m2 CLR
04:01 12.8 °C 10.8 °C 1008.0 hPa Calm     88 % 0.0 mm 0.0 W/m2 CLR
04:06 12.8 °C 10.8 °C 1008.0 hPa Calm     88 % 0.0 mm 0.0 W/m2 CLR
04:11 12.8 °C 10.8 °C 1008.0 hPa Calm     88 % 0.0 mm 0.0 W/m2 CLR
04:21 12.8 °C 10.8 °C 1007.7 hPa Calm     88 % 0.0 mm 0.0 W/m2 CLR
04:26 12.8 °C 10.8 °C 1007.7 hPa Calm     88 % 0.0 mm 0.0 W/m2 CLR
04:31 12.8 °C 10.8 °C 1007.7 hPa Calm     88 % 0.0 mm 0.0 W/m2 CLR
04:36 12.8 °C 10.8 °C 1007.7 hPa Calm     88 % 0.0 mm 0.0 W/m2 CLR
04:41 12.8 °C 10.8 °C 1007.7 hPa Calm     88 % 0.0 mm 0.0 W/m2 CLR
04:46 13.3 °C 11.6 °C 1007.7 hPa Calm     89 % 0.0 mm 0.0 W/m2 CLR
04:51 13.3 °C 11.6 °C 1007.7 hPa Calm     89 % 0.0 mm 0.0 W/m2 CLR
04:56 13.3 °C 11.6 °C 1007.7 hPa Calm     89 % 0.0 mm 0.0 W/m2 CLR
05:01 13.3 °C 11.6 °C 1008.0 hPa Calm     89 % 0.0 mm 0.0 W/m2 CLR
05:06 13.3 °C 11.6 °C 1008.0 hPa Calm     89 % 0.0 mm 0.0 W/m2 CLR
05:13 13.3 °C 11.6 °C 1008.0 hPa Calm     89 % 0.0 mm 0.0 W/m2 CLR
05:18 13.3 °C 11.7 °C 1008.0 hPa Calm     90 % 0.0 mm 0.0 W/m2 CLR
05:19 13.3 °C 11.7 °C 1008.0 hPa Calm     90 % 0.0 mm 0.0 W/m2 CLR
05:21 13.3 °C 11.7 °C 1007.7 hPa Calm     90 % 0.0 mm 0.0 W/m2 CLR
05:23 13.3 °C 11.6 °C 1007.7 hPa Calm     89 % 0.0 mm 0.0 W/m2 CLR
05:26 13.3 °C 11.6 °C 1008.0 hPa Calm     89 % 0.0 mm 0.0 W/m2 CLR
05:31 13.3 °C 11.7 °C 1007.7 hPa Calm     90 % 0.0 mm 0.0 W/m2 CLR
05:36 12.8 °C 11.2 °C 1007.7 hPa Calm     90 % 0.0 mm 0.0 W/m2 CLR
05:41 12.8 °C 11.0 °C 1007.7 hPa Calm     89 % 0.0 mm 0.0 W/m2 CLR
05:46 12.8 °C 11.2 °C 1007.7 hPa Calm     90 % 0.0 mm 0.0 W/m2 CLR
05:51 12.2 °C 10.6 °C 1007.7 hPa Calm     90 % 0.0 mm 0.0 W/m2 CLR
05:56 12.2 °C 10.6 °C 1007.7 hPa Calm     90 % 0.0 mm 0.0 W/m2 CLR
06:01 12.2 °C 10.6 °C 1007.3 hPa Calm     90 % 0.0 mm 0.0 W/m2 CLR
06:06 12.2 °C 10.6 °C 1007.3 hPa Calm     90 % 0.0 mm 0.0 W/m2 CLR
06:11 12.2 °C 10.6 °C 1007.3 hPa Calm     90 % 0.0 mm 0.0 W/m2 CLR
06:16 11.7 °C 10.1 °C 1007.7 hPa Calm     90 % 0.0 mm 0.0 W/m2 CLR
06:21 12.2 °C 10.6 °C 1007.7 hPa Calm     90 % 0.0 mm 0.0 W/m2 CLR
06:26 12.2 °C 10.6 °C 1007.7 hPa Calm     90 % 0.0 mm 0.0 W/m2 CLR
06:31 12.2 °C 10.6 °C 1007.7 hPa Calm     90 % 0.0 mm 0.0 W/m2 CLR
06:36 12.2 °C 10.6 °C 1007.7 hPa Calm     90 % 0.0 mm 0.0 W/m2 CLR
06:41 12.2 °C 10.6 °C 1007.7 hPa Calm     90 % 0.0 mm 0.0 W/m2 CLR
06:46 12.2 °C 10.8 °C 1007.7 hPa Calm     91 % 0.0 mm 0.0 W/m2 CLR
06:51 12.2 °C 10.8 °C 1007.7 hPa Calm     91 % 0.0 mm 0.0 W/m2 CLR
06:56 12.2 °C 10.8 °C 1008.0 hPa Calm     91 % 0.0 mm 0.0 W/m2 CLR
07:01 12.2 °C 10.9 °C 1008.0 hPa South 1.9 km/h   92 % 0.0 mm 0.0 W/m2 CLR
07:06 12.2 °C 10.6 °C 1008.0 hPa SW 5.6 km/h 5.6 km/h 90 % 0.0 mm 0.0 W/m2 CLR
07:11 12.8 °C 10.7 °C 1008.4 hPa South 7.4 km/h 7.4 km/h 87 % 0.0 mm 0.0 W/m2 CLR
07:16 12.8 °C 10.5 °C 1008.4 hPa SSW 9.3 km/h 9.3 km/h 86 % 0.0 mm 0.0 W/m2 CLR
07:21 13.3 °C 11.2 °C 1008.4 hPa SSW 14.8 km/h 14.8 km/h 87 % 0.0 mm 0.0 W/m2 CLR
07:26 14.4 °C 12.3 °C 1008.4 hPa SSW 14.5 km/h 14.5 km/h 87 % 0.0 mm 0.0 W/m2 OVC
07:31 15.0 °C 12.5 °C 1008.7 hPa SSW 14.8 km/h 14.8 km/h 85 % 0.0 mm 0.0 W/m2 OVC
07:36 15.0 °C 12.1 °C 1008.7 hPa SSW 11.3 km/h 11.3 km/h 83 % 0.0 mm 0.0 W/m2 OVC
07:41 15.0 °C 11.8 °C 1008.7 hPa SSW 13.0 km/h 13.0 km/h 81 % 0.0 mm 0.0 W/m2 OVC
07:46 15.6 °C 11.9 °C 1008.7 hPa South 9.3 km/h 9.3 km/h 79 % 0.0 mm 5.0 W/m2 OVC
07:51 15.0 °C 11.0 °C 1008.7 hPa SSW 7.4 km/h 7.4 km/h 77 % 0.0 mm 7.0 W/m2 BKN
07:56 15.0 °C 10.8 °C 1008.7 hPa SW 7.4 km/h 7.4 km/h 76 % 0.0 mm 11.0 W/m2 BKN
08:01 15.0 °C 10.8 °C 1009.0 hPa SSW 7.4 km/h   76 % 0.0 mm 14.0 W/m2 BKN
08:06 15.0 °C 10.8 °C 1008.7 hPa Calm     76 % 0.0 mm 19.0 W/m2 BKN
08:07 15.0 °C 10.8 °C 1008.7 hPa Calm     76 % 0.0 mm 19.0 W/m2 BKN
08:12 15.0 °C 10.4 °C 1008.7 hPa SSW 5.6 km/h 5.6 km/h 74 % 0.0 mm 25.0 W/m2 BKN
08:17 15.0 °C 10.4 °C 1009.0 hPa Calm     74 % 0.0 mm 33.0 W/m2 BKN
08:22 15.0 °C 10.6 °C 1009.0 hPa Calm     75 % 0.0 mm 42.0 W/m2 BKN
08:27 15.0 °C 10.8 °C 1009.0 hPa SSE 8.0 km/h 8.0 km/h 76 % 0.0 mm 46.0 W/m2 SCT
08:32 15.0 °C 10.8 °C 1009.0 hPa SSE 5.6 km/h   76 % 0.0 mm 44.0 W/m2 BKN
08:37 15.6 °C 11.2 °C 1009.0 hPa South 11.1 km/h 11.1 km/h 75 % 0.0 mm 44.0 W/m2 BKN
08:42 15.6 °C 10.3 °C 1009.0 hPa SE 14.5 km/h 14.5 km/h 71 % 0.0 mm 56.0 W/m2 SCT
08:47 16.1 °C 10.4 °C 1009.0 hPa South 20.4 km/h 20.4 km/h 69 % 0.0 mm 74.0 W/m2 SCT
08:52 16.1 °C 10.0 °C 1009.0 hPa SSE 11.1 km/h 11.1 km/h 67 % 0.0 mm 83.0 W/m2 FEW
08:57 16.1 °C 9.8 °C 1009.0 hPa SSE 20.4 km/h 20.4 km/h 66 % 0.0 mm 91.0 W/m2 FEW
09:02 16.1 °C 9.8 °C 1009.0 hPa South 13.0 km/h 13.0 km/h 66 % 0.0 mm 118.0 W/m2 CLR
09:07 16.1 °C 10.0 °C 1009.0 hPa South 9.3 km/h 9.3 km/h 67 % 0.0 mm 134.0 W/m2 CLR
09:12 16.7 °C 10.5 °C 1009.0 hPa SSW 18.5 km/h 18.5 km/h 67 % 0.0 mm 121.0 W/m2 CLR
09:17 17.2 °C 11.1 °C 1009.0 hPa SSW 14.8 km/h 14.8 km/h 67 % 0.0 mm 118.0 W/m2 CLR
09:22 17.2 °C 11.3 °C 1009.0 hPa South 20.4 km/h 20.4 km/h 68 % 0.0 mm 148.0 W/m2 CLR
09:27 17.8 °C 11.8 °C 1009.0 hPa SSW 16.7 km/h 16.7 km/h 68 % 0.0 mm 181.0 W/m2 CLR
09:32 17.8 °C 11.8 °C 1009.0 hPa SSW 14.8 km/h 14.8 km/h 68 % 0.0 mm 227.0 W/m2 CLR
09:37 17.8 °C 11.8 °C 1009.0 hPa SSW 13.0 km/h 13.0 km/h 68 % 0.0 mm 220.0 W/m2 CLR
09:42 18.3 °C 12.3 °C 1009.0 hPa South 18.5 km/h 18.5 km/h 68 % 0.0 mm 206.0 W/m2 CLR
09:47 18.3 °C 12.6 °C 1009.0 hPa South 18.5 km/h 18.5 km/h 69 % 0.0 mm 193.0 W/m2 CLR
09:52 18.3 °C 12.6 °C 1009.0 hPa SW 18.5 km/h 18.5 km/h 69 % 0.0 mm 223.0 W/m2 CLR
09:57 18.3 °C 12.6 °C 1009.0 hPa SSW 5.6 km/h 5.6 km/h 69 % 0.0 mm 264.0 W/m2 CLR
10:02 18.9 °C 13.1 °C 1009.0 hPa WSW 25.7 km/h 25.7 km/h 69 % 0.0 mm 218.0 W/m2 CLR
10:07 18.9 °C 12.8 °C 1009.0 hPa South 14.8 km/h 14.8 km/h 68 % 0.0 mm 174.0 W/m2 CLR
10:12 18.9 °C 12.8 °C 1009.0 hPa SSW 14.8 km/h 14.8 km/h 68 % 0.0 mm 223.0 W/m2 CLR
10:17 18.9 °C 12.8 °C 1009.0 hPa SW 27.8 km/h 27.8 km/h 68 % 0.0 mm 204.0 W/m2 CLR
10:22 18.9 °C 13.1 °C 1009.0 hPa West 24.1 km/h 24.1 km/h 69 % 0.0 mm 218.0 W/m2 CLR
10:28 18.9 °C 13.1 °C 1009.0 hPa South 11.1 km/h 11.1 km/h 69 % 0.0 mm 209.0 W/m2 CLR
10:33 18.9 °C 12.8 °C 1009.0 hPa SSW 27.8 km/h 27.8 km/h 68 % 0.0 mm 199.0 W/m2 CLR
10:38 18.9 °C 12.8 °C 1009.0 hPa SSW 16.7 km/h 16.7 km/h 68 % 0.0 mm 169.0 W/m2 CLR
10:43 18.9 °C 12.8 °C 1009.0 hPa SSW 24.1 km/h 24.1 km/h 68 % 0.0 mm 144.0 W/m2 CLR
10:48 18.9 °C 12.8 °C 1009.0 hPa South 29.6 km/h 29.6 km/h 68 % 0.0 mm 134.0 W/m2 CLR
10:53 18.9 °C 12.8 °C 1009.0 hPa SW 14.8 km/h 14.8 km/h 68 % 0.0 mm 137.0 W/m2 CLR
10:58 18.9 °C 12.8 °C 1009.0 hPa SW 22.5 km/h 22.5 km/h 68 % 0.0 mm 139.0 W/m2 CLR
11:03 18.9 °C 12.8 °C 1009.0 hPa SW 13.0 km/h 13.0 km/h 68 % 0.0 mm 142.0 W/m2 CLR
11:08 18.9 °C 12.8 °C 1009.0 hPa SW 31.5 km/h 31.5 km/h 68 % 0.0 mm 132.0 W/m2 CLR
11:13 18.9 °C 12.8 °C 1009.0 hPa SW 27.8 km/h 27.8 km/h 68 % 0.0 mm 105.0 W/m2 CLR
11:18 18.9 °C 12.8 °C 1009.4 hPa SSW 22.2 km/h 22.2 km/h 68 % 0.0 mm 125.0 W/m2 CLR
11:23 18.9 °C 12.8 °C 1009.4 hPa SW 22.2 km/h 22.2 km/h 68 % 0.0 mm 142.0 W/m2 CLR
11:28 18.9 °C 12.8 °C 1009.4 hPa SSW 18.5 km/h 18.5 km/h 68 % 0.0 mm 158.0 W/m2 CLR
11:33 19.4 °C 13.4 °C 1009.4 hPa SW 33.3 km/h 33.3 km/h 68 % 0.0 mm 162.0 W/m2 CLR
11:38 19.4 °C 13.2 °C 1009.4 hPa WSW 16.1 km/h 16.1 km/h 67 % 0.0 mm 162.0 W/m2 CLR
11:43 19.4 °C 13.2 °C 1009.4 hPa SW 20.4 km/h 20.4 km/h 67 % 0.0 mm 202.0 W/m2 CLR
11:48 19.4 °C 13.2 °C 1009.4 hPa SW 24.1 km/h 24.1 km/h 67 % 0.0 mm 192.0 W/m2 CLR
11:53 19.4 °C 12.9 °C 1009.4 hPa SW 25.9 km/h 25.9 km/h 66 % 0.0 mm 185.0 W/m2 CLR
11:58 19.4 °C 13.2 °C 1009.4 hPa WSW 31.5 km/h 31.5 km/h 67 % 0.0 mm 186.0 W/m2 CLR
12:03 20.0 °C 13.4 °C 1009.4 hPa WSW 27.8 km/h 27.8 km/h 66 % 0.0 mm 146.0 W/m2 CLR
12:08 19.4 °C 12.9 °C 1009.4 hPa SW 42.6 km/h 42.6 km/h 66 % 0.0 mm 163.0 W/m2 CLR
12:13 19.4 °C 13.2 °C 1009.4 hPa WSW 31.5 km/h 31.5 km/h 67 % 0.0 mm 207.0 W/m2 CLR
12:18 20.0 °C 13.4 °C 1009.4 hPa WSW 37.0 km/h 37.0 km/h 66 % 0.0 mm 200.0 W/m2 CLR
12:23 19.4 °C 13.2 °C 1009.4 hPa WSW 31.5 km/h 31.5 km/h 67 % 0.0 mm 206.0 W/m2 CLR
12:28 20.0 °C 13.7 °C 1009.4 hPa West 33.8 km/h 33.8 km/h 67 % 0.0 mm 209.0 W/m2 CLR
12:33 19.4 °C 13.2 °C 1009.4 hPa WSW 38.9 km/h 38.9 km/h 67 % 0.0 mm 209.0 W/m2 CLR
12:38 19.4 °C 13.2 °C 1009.4 hPa WSW 37.0 km/h 37.0 km/h 67 % 0.0 mm 185.0 W/m2 CLR
12:43 19.4 °C 13.2 °C 1009.4 hPa WSW 31.5 km/h 31.5 km/h 67 % 0.0 mm 135.0 W/m2 CLR
12:48 19.4 °C 13.4 °C 1009.4 hPa West 25.9 km/h 26.7 km/h 68 % 0.0 mm 123.0 W/m2 CLR
12:53 19.4 °C 13.4 °C 1009.4 hPa SSW 24.1 km/h 24.1 km/h 68 % 0.0 mm 121.0 W/m2 CLR
12:58 18.9 °C 13.1 °C 1009.4 hPa SSW 29.6 km/h 29.6 km/h 69 % 0.0 mm 116.0 W/m2 CLR
13:03 18.9 °C 13.1 °C 1009.0 hPa SW 31.5 km/h 31.5 km/h 69 % 0.0 mm 104.0 W/m2 CLR
13:08 18.9 °C 12.4 °C 1009.0 hPa SW 42.6 km/h 42.6 km/h 66 % 0.0 mm 105.0 W/m2 CLR
13:13 18.9 °C 12.2 °C 1009.4 hPa WSW 33.3 km/h 33.3 km/h 65 % 0.0 mm 93.0 W/m2 CLR
13:18 18.9 °C 12.6 °C 1009.4 hPa WSW 31.5 km/h 31.5 km/h 67 % 0.0 mm 95.0 W/m2 CLR
13:23 18.9 °C 12.4 °C 1009.4 hPa WSW 38.9 km/h 38.9 km/h 66 % 0.0 mm 105.0 W/m2 CLR
13:28 18.9 °C 11.9 °C 1009.4 hPa SSW 40.7 km/h 40.7 km/h 64 % 0.0 mm 118.0 W/m2 CLR
13:33 18.9 °C 11.9 °C 1009.4 hPa SSW 37.0 km/h 37.0 km/h 64 % 0.0 mm 121.0 W/m2 CLR
13:38 18.9 °C 11.7 °C 1009.4 hPa SW 27.4 km/h 27.4 km/h 63 % 0.0 mm 118.0 W/m2 CLR
13:43 18.9 °C 11.7 °C 1009.4 hPa WSW 32.2 km/h 32.2 km/h 63 % 0.0 mm 134.0 W/m2 CLR
13:48 18.9 °C 11.9 °C 1009.4 hPa SW 33.3 km/h 33.3 km/h 64 % 0.0 mm 139.0 W/m2 CLR
13:53 18.3 °C 11.6 °C 1009.4 hPa SW 31.5 km/h 31.5 km/h 65 % 0.0 mm 130.0 W/m2 CLR
13:58 18.3 °C 11.9 °C 1009.4 hPa SW 35.2 km/h 35.2 km/h 66 % 0.0 mm 111.0 W/m2 CLR
14:03 18.3 °C 12.1 °C 1009.4 hPa WSW 33.8 km/h 33.8 km/h 67 % 0.0 mm 104.0 W/m2 CLR
14:08 17.8 °C 11.8 °C 1009.4 hPa SW 33.3 km/h 33.3 km/h 68 % 0.0 mm 104.0 W/m2 CLR
14:13 17.8 °C 12.0 °C 1009.7 hPa SW 27.4 km/h 27.4 km/h 69 % 0.0 mm 111.0 W/m2 CLR
14:18 17.8 °C 12.0 °C 1009.4 hPa SSW 27.8 km/h 27.8 km/h 69 % 0.0 mm 105.0 W/m2 CLR
14:23 17.8 °C 12.2 °C 1009.4 hPa SW 27.8 km/h 27.8 km/h 70 % 0.0 mm 81.0 W/m2 CLR
14:28 17.2 °C 12.1 °C 1009.4 hPa SSW 22.2 km/h 22.2 km/h 72 % 0.0 mm 77.0 W/m2 FEW
14:33 17.2 °C 11.9 °C 1009.7 hPa SW 33.3 km/h 33.3 km/h 71 % 0.0 mm 81.0 W/m2 FEW
14:38 17.2 °C 12.1 °C 1009.7 hPa WSW 25.9 km/h 25.9 km/h 72 % 0.0 mm 95.0 W/m2 FEW
14:43 17.2 °C 12.1 °C 1009.4 hPa SSW 27.4 km/h 27.4 km/h 72 % 0.0 mm 109.0 W/m2 CLR
14:44 17.2 °C 12.1 °C 1009.4 hPa SW 24.1 km/h 24.1 km/h 72 % 0.0 mm 109.0 W/m2 CLR
14:49 16.7 °C 12.0 °C 1009.4 hPa WSW 20.4 km/h 20.4 km/h 74 % 0.0 mm 100.0 W/m2 CLR
14:54 16.7 °C 11.8 °C 1009.4 hPa SSW 24.1 km/h 24.1 km/h 73 % 0.0 mm 116.0 W/m2 CLR
14:59 16.7 °C 11.6 °C 1009.4 hPa SW 18.5 km/h 18.5 km/h 72 % 0.3 mm 139.0 W/m2 RA
15:04 16.7 °C 11.4 °C 1009.4 hPa SW 20.4 km/h 20.4 km/h 71 % 0.3 mm 142.0 W/m2 CLR
15:09 17.2 °C 11.7 °C 1009.4 hPa SW 24.1 km/h 24.1 km/h 70 % 0.3 mm 193.0 W/m2 CLR
15:14 17.2 °C 11.3 °C 1009.4 hPa SW 22.2 km/h 22.2 km/h 68 % 0.3 mm 236.0 W/m2 CLR
15:19 17.8 °C 11.3 °C 1009.4 hPa SSW 31.5 km/h 31.5 km/h 66 % 0.3 mm 250.0 W/m2 CLR
15:24 18.3 °C 11.2 °C 1009.0 hPa SW 31.5 km/h 31.5 km/h 63 % 0.3 mm 239.0 W/m2 CLR
15:29 18.3 °C 11.2 °C 1009.4 hPa WSW 31.5 km/h 31.5 km/h 63 % 0.3 mm 248.0 W/m2 CLR
15:34 18.3 °C 11.2 °C 1009.0 hPa WSW 25.9 km/h 25.9 km/h 63 % 0.3 mm 229.0 W/m2 CLR
15:39 18.9 °C 11.4 °C 1009.0 hPa SW 25.9 km/h 25.9 km/h 62 % 0.3 mm 308.0 W/m2 CLR
15:44 18.9 °C 11.7 °C 1009.0 hPa SW 27.8 km/h 27.8 km/h 63 % 0.3 mm 292.0 W/m2 CLR
15:49 18.9 °C 11.2 °C 1009.0 hPa SW 29.6 km/h 29.6 km/h 61 % 0.3 mm 276.0 W/m2 CLR
15:54 18.9 °C 11.2 °C 1008.7 hPa WSW 27.8 km/h 27.8 km/h 61 % 0.3 mm 271.0 W/m2 CLR
15:59 19.4 °C 11.2 °C 1008.7 hPa SW 35.2 km/h 35.2 km/h 59 % 0.0 mm 322.0 W/m2 CLR
16:04 19.4 °C 11.5 °C 1008.7 hPa WSW 24.1 km/h 24.1 km/h 60 % 0.0 mm 327.0 W/m2 CLR
16:09 20.0 °C 11.5 °C 1008.4 hPa SW 29.6 km/h 29.6 km/h 58 % 0.0 mm 327.0 W/m2 CLR
16:14 20.0 °C 11.2 °C 1008.4 hPa WSW 33.3 km/h 33.3 km/h 57 % 0.0 mm 334.0 W/m2 CLR
16:19 20.0 °C 11.2 °C 1008.4 hPa West 25.9 km/h 25.9 km/h 57 % 0.0 mm 309.0 W/m2 CLR
16:24 20.0 °C 10.9 °C 1008.4 hPa WSW 29.6 km/h 29.6 km/h 56 % 0.0 mm 287.0 W/m2 CLR
16:29 20.0 °C 10.9 °C 1008.4 hPa WSW 33.3 km/h 33.3 km/h 56 % 0.0 mm 318.0 W/m2 CLR
16:34 20.0 °C 10.9 °C 1008.4 hPa WSW 32.2 km/h 32.2 km/h 56 % 0.0 mm 399.0 W/m2 CLR
16:39 20.6 °C 11.2 °C 1008.4 hPa WSW 24.1 km/h 24.1 km/h 55 % 0.0 mm 408.0 W/m2 CLR
16:44 20.6 °C 10.9 °C 1008.4 hPa WSW 29.6 km/h 29.6 km/h 54 % 0.0 mm 378.0 W/m2 CLR
16:49 21.1 °C 11.7 °C 1008.4 hPa West 27.8 km/h 27.8 km/h 55 % 0.0 mm 633.0 W/m2 CLR
16:54 21.1 °C 11.2 °C 1008.4 hPa SW 35.2 km/h 35.2 km/h 53 % 0.0 mm 461.0 W/m2 CLR
16:59 20.6 °C 10.9 °C 1008.0 hPa SW 24.1 km/h 24.1 km/h 54 % 0.0 mm 287.0 W/m2 CLR
17:00 20.6 °C 10.9 °C 1008.0 hPa SW 29.6 km/h 29.6 km/h 54 % 0.0 mm 287.0 W/m2 CLR
17:05 20.6 °C 11.2 °C 1008.4 hPa SW 33.3 km/h 33.3 km/h 55 % 0.0 mm 359.0 W/m2 CLR
17:10 21.1 °C 11.7 °C 1008.4 hPa WSW 31.5 km/h 31.5 km/h 55 % 0.0 mm 425.0 W/m2 CLR
17:15 21.1 °C 11.4 °C 1008.4 hPa West 31.5 km/h 31.5 km/h 54 % 0.0 mm 464.0 W/m2 CLR
17:20 21.7 °C 11.9 °C 1008.4 hPa SW 29.6 km/h 29.6 km/h 54 % 0.0 mm 274.0 W/m2 CLR
17:25 21.1 °C 11.2 °C 1008.4 hPa SW 33.3 km/h 33.3 km/h 53 % 0.0 mm 232.0 W/m2 CLR
17:30 21.1 °C 11.4 °C 1008.4 hPa SW 30.6 km/h 30.6 km/h 54 % 0.0 mm 272.0 W/m2 CLR
17:35 21.1 °C 11.2 °C 1008.4 hPa WSW 22.2 km/h 22.2 km/h 53 % 0.0 mm 206.0 W/m2 CLR
17:40 20.6 °C 10.7 °C 1008.4 hPa SW 31.5 km/h 31.5 km/h 53 % 0.0 mm 188.0 W/m2 CLR
17:45 20.6 °C 10.9 °C 1008.4 hPa SW 35.2 km/h 35.2 km/h 54 % 0.0 mm 186.0 W/m2 CLR
17:50 20.6 °C 10.9 °C 1008.4 hPa WSW 29.6 km/h 29.6 km/h 54 % 0.0 mm 206.0 W/m2 CLR
17:55 20.6 °C 10.7 °C 1008.4 hPa WSW 38.9 km/h 38.9 km/h 53 % 0.0 mm 139.0 W/m2 CLR
18:00 20.0 °C 10.4 °C 1008.7 hPa West 32.2 km/h 32.2 km/h 54 % 0.0 mm 100.0 W/m2 CLR
18:05 20.0 °C 10.1 °C 1008.7 hPa SSW 38.9 km/h 38.9 km/h 53 % 0.0 mm 62.0 W/m2 CLR
18:10 19.4 °C 9.6 °C 1008.7 hPa West 33.3 km/h 33.3 km/h 53 % 0.0 mm 51.0 W/m2 FEW
18:15 19.4 °C 9.9 °C 1008.7 hPa SW 25.9 km/h 25.9 km/h 54 % 0.0 mm 40.0 W/m2 SCT
18:20 19.4 °C 9.9 °C 1008.7 hPa WSW 31.5 km/h 31.5 km/h 54 % 0.0 mm 28.0 W/m2 BKN
18:25 18.9 °C 9.4 °C 1008.7 hPa WSW 37.0 km/h 37.0 km/h 54 % 0.0 mm 37.0 W/m2 BKN
18:30 18.9 °C 9.7 °C 1009.0 hPa WSW 38.9 km/h 38.9 km/h 55 % 0.0 mm 32.0 W/m2 BKN
18:35 18.9 °C 9.9 °C 1008.7 hPa SW 33.3 km/h 33.3 km/h 56 % 0.0 mm 23.0 W/m2 BKN
18:40 18.9 °C 10.2 °C 1008.7 hPa SW 37.0 km/h 37.0 km/h 57 % 0.0 mm 32.0 W/m2 BKN
18:45 18.3 °C 10.4 °C 1009.0 hPa SW 30.6 km/h 30.6 km/h 60 % 0.0 mm 25.0 W/m2 BKN
18:50 17.8 °C 10.4 °C 1009.0 hPa SW 33.3 km/h 33.3 km/h 62 % 0.0 mm 25.0 W/m2 BKN
18:55 17.2 °C 9.9 °C 1009.0 hPa SSW 25.9 km/h 25.9 km/h 62 % 0.0 mm 30.0 W/m2 BKN
19:01 17.2 °C 9.9 °C 1009.0 hPa SSW 25.9 km/h 25.9 km/h 62 % 0.0 mm 35.0 W/m2 BKN
19:06 17.2 °C 10.1 °C 1009.0 hPa SSW 18.5 km/h 18.5 km/h 63 % 0.0 mm 33.0 W/m2 BKN
19:11 16.7 °C 10.1 °C 1009.0 hPa SSW 25.9 km/h 25.9 km/h 65 % 0.0 mm 28.0 W/m2 BKN
19:16 16.7 °C 10.7 °C 1009.0 hPa South 18.5 km/h 18.5 km/h 68 % 0.0 mm 28.0 W/m2 BKN
19:21 16.1 °C 10.4 °C 1009.0 hPa SSW 5.6 km/h 5.6 km/h 69 % 0.0 mm 35.0 W/m2 BKN
19:26 16.1 °C 10.4 °C 1009.0 hPa South 16.7 km/h 16.7 km/h 69 % 0.0 mm 47.0 W/m2 SCT
19:31 16.1 °C 10.4 °C 1009.0 hPa SSW 20.4 km/h 20.4 km/h 69 % 0.0 mm 70.0 W/m2 SCT
19:36 16.1 °C 10.2 °C 1009.0 hPa SSW 25.9 km/h 25.9 km/h 68 % 0.0 mm 74.0 W/m2 FEW
19:41 16.1 °C 10.0 °C 1009.0 hPa SSW 24.1 km/h 24.1 km/h 67 % 0.0 mm 90.0 W/m2 CLR
19:46 16.1 °C 10.0 °C 1009.0 hPa South 20.4 km/h 20.4 km/h 67 % 0.0 mm 62.0 W/m2 SCT
19:51 16.1 °C 10.0 °C 1009.0 hPa SSW 20.4 km/h 20.4 km/h 67 % 0.0 mm 56.0 W/m2 SCT
19:56 16.1 °C 10.0 °C 1009.0 hPa SSW 22.2 km/h 22.2 km/h 67 % 0.0 mm 49.0 W/m2 SCT
20:01 16.1 °C 10.0 °C 1009.0 hPa South 18.5 km/h 19.1 km/h 67 % 0.0 mm 32.0 W/m2 BKN
20:06 16.1 °C 10.0 °C 1009.0 hPa SSW 25.9 km/h 25.9 km/h 67 % 0.0 mm 16.0 W/m2 BKN
20:11 16.1 °C 10.0 °C 1009.0 hPa South 18.5 km/h 18.5 km/h 67 % 0.0 mm 11.0 W/m2 BKN
20:16 16.1 °C 10.2 °C 1009.0 hPa South 25.9 km/h 25.9 km/h 68 % 0.0 mm 5.0 W/m2 BKN
20:21 16.1 °C 10.2 °C 1009.0 hPa SSW 22.2 km/h 22.2 km/h 68 % 0.0 mm 0.0 W/m2 OVC
20:26 15.6 °C 9.7 °C 1009.0 hPa South 14.8 km/h 14.8 km/h 68 % 0.0 mm 0.0 W/m2 OVC
20:31 15.6 °C 9.7 °C 1009.0 hPa SSW 22.2 km/h 22.2 km/h 68 % 0.0 mm 0.0 W/m2 CLR
20:36 15.6 °C 9.7 °C 1009.0 hPa South 19.3 km/h 19.3 km/h 68 % 0.0 mm 0.0 W/m2 CLR
20:41 15.6 °C 9.7 °C 1009.0 hPa South 24.1 km/h 24.1 km/h 68 % 0.0 mm 0.0 W/m2 CLR
20:46 15.6 °C 9.7 °C 1009.4 hPa SSW 22.2 km/h 22.2 km/h 68 % 0.0 mm 0.0 W/m2 CLR
20:51 15.6 °C 9.7 °C 1009.4 hPa SSW 24.1 km/h 24.1 km/h 68 % 0.0 mm 0.0 W/m2 CLR
20:56 15.6 °C 9.7 °C 1009.4 hPa SW 18.5 km/h 18.5 km/h 68 % 0.0 mm 0.0 W/m2 CLR
21:01 15.6 °C 9.7 °C 1009.4 hPa South 27.8 km/h 27.8 km/h 68 % 0.0 mm 0.0 W/m2 CLR
21:06 15.6 °C 9.7 °C 1009.7 hPa South 24.1 km/h 24.1 km/h 68 % 0.0 mm 0.0 W/m2 CLR
21:08 15.6 °C 9.7 °C 1009.7 hPa SSW 22.2 km/h 22.2 km/h 68 % 0.0 mm 0.0 W/m2 CLR
21:13 15.6 °C 9.7 °C 1009.7 hPa SSW 20.4 km/h 20.4 km/h 68 % 0.0 mm 0.0 W/m2 CLR
21:18 15.6 °C 9.4 °C 1009.7 hPa South 20.4 km/h 20.4 km/h 67 % 0.0 mm 0.0 W/m2 CLR
21:23 15.6 °C 9.4 °C 1009.7 hPa South 20.4 km/h 20.4 km/h 67 % 0.0 mm 0.0 W/m2 CLR
21:28 15.6 °C 9.2 °C 1010.0 hPa SSW 18.5 km/h 18.5 km/h 66 % 0.0 mm 0.0 W/m2 CLR
21:33 15.6 °C 9.2 °C 1010.0 hPa SSW 22.2 km/h 22.2 km/h 66 % 0.0 mm 0.0 W/m2 CLR
21:34 15.6 °C 9.2 °C 1010.0 hPa SSW 22.2 km/h 22.2 km/h 66 % 0.0 mm 0.0 W/m2 CLR
21:39 15.6 °C 9.2 °C 1010.0 hPa SSW 22.2 km/h 22.2 km/h 66 % 0.0 mm 0.0 W/m2 CLR
21:44 16.1 °C 9.5 °C 1010.0 hPa SSW 20.4 km/h 20.4 km/h 65 % 0.0 mm 0.0 W/m2 CLR
21:49 16.1 °C 9.3 °C 1010.4 hPa SSW 22.5 km/h 22.5 km/h 64 % 0.0 mm 0.0 W/m2 CLR
21:54 16.7 °C 9.8 °C 1010.4 hPa SW 20.4 km/h 20.4 km/h 64 % 0.0 mm 0.0 W/m2 CLR
21:59 16.7 °C 9.6 °C 1010.7 hPa WSW 31.5 km/h 31.5 km/h 63 % 0.0 mm 0.0 W/m2 CLR
22:04 16.7 °C 8.9 °C 1010.7 hPa WSW 29.0 km/h 29.0 km/h 60 % 0.0 mm 0.0 W/m2 CLR
22:09 16.7 °C 8.6 °C 1010.7 hPa WSW 35.2 km/h 35.2 km/h 59 % 0.0 mm 0.0 W/m2 CLR
22:14 16.7 °C 8.3 °C 1011.1 hPa West 42.6 km/h 42.6 km/h 58 % 0.0 mm 0.0 W/m2 CLR
22:19 16.7 °C 8.6 °C 1011.1 hPa SW 33.8 km/h 33.8 km/h 59 % 0.0 mm 0.0 W/m2 CLR
22:24 16.7 °C 8.6 °C 1011.1 hPa WSW 31.5 km/h 31.5 km/h 59 % 0.0 mm 0.0 W/m2 CLR
22:29 16.7 °C 8.6 °C 1011.1 hPa WSW 29.6 km/h 29.6 km/h 59 % 0.0 mm 0.0 W/m2 CLR
22:34 16.7 °C 8.6 °C 1011.1 hPa SW 33.8 km/h 33.8 km/h 59 % 0.0 mm 0.0 W/m2 CLR
22:39 16.7 °C 8.3 °C 1011.1 hPa WSW 35.2 km/h 35.2 km/h 58 % 0.0 mm 0.0 W/m2 CLR
22:44 16.7 °C 8.3 °C 1011.1 hPa WSW 33.3 km/h 33.3 km/h 58 % 0.0 mm 0.0 W/m2 CLR
22:49 16.7 °C 8.6 °C 1011.4 hPa SW 35.2 km/h 35.2 km/h 59 % 0.0 mm 0.0 W/m2 CLR
22:54 16.7 °C 8.6 °C 1011.1 hPa SW 29.6 km/h 29.6 km/h 59 % 0.0 mm 0.0 W/m2 CLR
22:59 16.1 °C 8.1 °C 1011.1 hPa WSW 31.5 km/h 31.5 km/h 59 % 0.0 mm 0.0 W/m2 CLR
23:04 16.1 °C 8.1 °C 1011.1 hPa WSW 33.3 km/h 33.3 km/h 59 % 0.0 mm 0.0 W/m2 CLR
23:09 16.1 °C 8.1 °C 1011.4 hPa West 25.9 km/h 25.9 km/h 59 % 0.0 mm 0.0 W/m2 CLR
23:14 16.1 °C 8.1 °C 1011.4 hPa WSW 37.0 km/h 37.0 km/h 59 % 0.0 mm 0.0 W/m2 CLR
23:19 16.1 °C 8.1 °C 1011.4 hPa SW 38.9 km/h 38.9 km/h 59 % 0.0 mm 0.0 W/m2 CLR
23:24 16.1 °C 8.1 °C 1011.7 hPa SW 31.5 km/h 31.5 km/h 59 % 0.0 mm 0.0 W/m2 CLR
23:29 16.1 °C 8.3 °C 1011.4 hPa SW 40.7 km/h 40.7 km/h 60 % 0.0 mm 0.0 W/m2 CLR
23:34 16.1 °C 8.3 °C 1011.4 hPa SW 33.3 km/h 33.3 km/h 60 % 0.0 mm 0.0 W/m2 CLR
23:39 15.6 °C 7.8 °C 1011.4 hPa SW 35.2 km/h 35.2 km/h 60 % 0.0 mm 0.0 W/m2 CLR
23:44 15.6 °C 7.8 °C 1011.4 hPa SSW 37.0 km/h 37.0 km/h 60 % 0.0 mm 0.0 W/m2 CLR
23:49 15.6 °C 7.8 °C 1011.4 hPa SSW 44.4 km/h 44.4 km/h 60 % 0.0 mm 0.0 W/m2 CLR
23:54 15.6 °C 7.8 °C 1011.4 hPa SW 40.2 km/h 40.2 km/h 60 % 0.0 mm 0.0 W/m2 CLR
23:59 15.6 °C 7.8 °C 1011.4 hPa SSW 40.7 km/h 40.7 km/h 60 % 0.0 mm 0.0 W/m2 CLR
Lo Temps de Massalio
Compliments of Weather Underground - 1.25 mb